createdAt,value
2022-08-18T00:00:25.299Z,60.48
2022-08-18T00:01:40.805Z,61.44
2022-08-18T00:02:49.746Z,62.27
2022-08-18T00:04:14.784Z,63.65
2022-08-18T00:05:26.153Z,64.00
2022-08-18T00:06:29.910Z,63.25
2022-08-18T00:07:33.812Z,62.24
2022-08-18T00:08:38.493Z,61.31
2022-08-18T00:09:41.761Z,60.42
2022-08-18T00:10:43.576Z,59.72
2022-08-18T00:11:45.707Z,58.97
2022-08-18T00:12:47.480Z,58.25
2022-08-18T00:13:49.345Z,58.45
2022-08-18T00:14:52.581Z,59.19
2022-08-18T00:15:54.550Z,60.09
2022-08-18T00:16:56.409Z,60.94
2022-08-18T00:17:58.285Z,61.76
2022-08-18T00:19:00.298Z,62.55
2022-08-18T00:20:04.285Z,63.65
2022-08-18T00:21:06.068Z,63.99
2022-08-18T00:22:08.760Z,63.41
2022-08-18T00:23:16.515Z,62.38
2022-08-18T00:24:18.568Z,61.45
2022-08-18T00:25:20.729Z,60.63
2022-08-18T00:26:22.551Z,59.92
2022-08-18T00:27:30.572Z,59.21
2022-08-18T00:28:32.421Z,58.27
2022-08-18T00:29:34.114Z,58.29
2022-08-18T00:30:35.839Z,58.93
2022-08-18T00:31:37.563Z,59.74
2022-08-18T00:32:44.002Z,60.66
2022-08-18T00:33:45.702Z,61.53
2022-08-18T00:34:47.453Z,62.26
2022-08-18T00:35:49.962Z,63.25
2022-08-18T00:36:51.731Z,63.94
2022-08-18T00:37:56.112Z,63.58
2022-08-18T00:38:58.109Z,62.63
2022-08-18T00:40:01.359Z,61.67
2022-08-18T00:41:03.811Z,60.81
2022-08-18T00:42:28.840Z,60.08
2022-08-18T00:43:45.467Z,59.11
2022-08-18T00:44:47.197Z,58.18
2022-08-18T00:45:49.576Z,58.35
2022-08-18T00:46:51.291Z,59.02
2022-08-18T00:47:53.727Z,59.87
2022-08-18T00:48:56.632Z,60.85
2022-08-18T00:49:58.812Z,61.69
2022-08-18T00:51:08.789Z,62.47
2022-08-18T00:52:14.172Z,63.70
2022-08-18T00:53:33.391Z,64.00
2022-08-18T00:54:37.649Z,63.12
2022-08-18T00:55:43.768Z,62.13
2022-08-18T00:57:02.266Z,61.00
2022-08-18T00:58:15.892Z,60.17
2022-08-18T00:59:47.029Z,59.37
2022-08-18T01:00:51.432Z,58.18
2022-08-18T01:02:02.454Z,58.29
2022-08-18T01:03:12.687Z,59.09
2022-08-18T01:04:22.023Z,60.03
2022-08-18T01:05:41.196Z,60.94
2022-08-18T01:06:51.852Z,61.88
2022-08-18T01:07:53.924Z,62.77
2022-08-18T01:08:56.179Z,63.78
2022-08-18T01:10:01.499Z,63.86
2022-08-18T01:11:03.409Z,63.08
2022-08-18T01:12:44.118Z,62.14
2022-08-18T01:13:33.008Z,60.98
2022-08-18T01:14:34.797Z,60.19
2022-08-18T01:15:37.918Z,59.56
2022-08-18T01:16:58.204Z,58.77
2022-08-18T01:18:25.208Z,58.29
2022-08-18T01:19:46.877Z,59.13
2022-08-18T01:21:23.381Z,60.28
2022-08-18T01:22:49.906Z,61.60
2022-08-18T01:23:54.619Z,62.77
2022-08-18T01:25:19.728Z,63.85
2022-08-18T01:26:24.222Z,63.70
2022-08-18T01:27:27.059Z,62.84
2022-08-18T01:28:33.952Z,61.86
2022-08-18T01:29:41.485Z,60.94
2022-08-18T01:30:56.132Z,60.12
2022-08-18T01:31:57.826Z,59.40
2022-08-18T01:32:59.514Z,58.48
2022-08-18T01:34:01.955Z,58.11
2022-08-18T01:35:08.570Z,58.51
2022-08-18T01:36:20.918Z,59.39
2022-08-18T01:37:24.488Z,60.45
2022-08-18T01:38:26.783Z,61.31
2022-08-18T01:41:01.823Z,63.21
2022-08-18T01:41:24.575Z,62.03
2022-08-18T01:42:19.225Z,64.02
2022-08-18T01:43:21.399Z,63.36
2022-08-18T01:44:23.113Z,62.50
2022-08-18T01:45:24.868Z,61.55
2022-08-18T01:46:29.656Z,60.79
2022-08-18T01:47:47.789Z,60.07
2022-08-18T01:48:51.179Z,59.28
2022-08-18T01:49:53.348Z,58.44
2022-08-18T01:50:56.905Z,58.29
2022-08-18T01:51:58.579Z,58.95
2022-08-18T01:53:01.206Z,59.81
2022-08-18T01:54:05.220Z,60.74
2022-08-18T01:55:08.030Z,61.68
2022-08-18T01:56:09.846Z,62.47
2022-08-18T01:57:13.512Z,63.68
2022-08-18T01:58:15.238Z,64.27
2022-08-18T01:59:17.462Z,63.79
2022-08-18T02:00:19.352Z,62.91
2022-08-18T02:01:24.683Z,62.01
2022-08-18T02:02:39.677Z,60.99
2022-08-18T02:03:46.855Z,60.25
2022-08-18T02:04:50.263Z,59.61
2022-08-18T02:05:51.996Z,58.93
2022-08-18T02:06:55.995Z,58.31
2022-08-18T02:07:57.931Z,58.56
2022-08-18T02:08:59.711Z,59.27
2022-08-18T02:10:02.043Z,60.14
2022-08-18T02:11:05.370Z,61.01
2022-08-18T02:12:07.953Z,61.83
2022-08-18T02:13:10.118Z,62.66
2022-08-18T02:14:11.809Z,63.74
2022-08-18T02:15:13.594Z,63.92
2022-08-18T02:16:16.877Z,63.25
2022-08-18T02:17:19.082Z,62.26
2022-08-18T02:18:35.388Z,61.33
2022-08-18T02:19:48.016Z,60.24
2022-08-18T02:20:50.026Z,59.57
2022-08-18T02:21:53.210Z,58.74
2022-08-18T02:22:55.112Z,58.12
2022-08-18T02:23:56.863Z,58.45
2022-08-18T02:24:58.566Z,59.19
2022-08-18T02:26:05.823Z,60.08
2022-08-18T02:27:09.200Z,61.00
2022-08-18T02:28:11.717Z,61.80
2022-08-18T02:29:13.712Z,62.57
2022-08-18T02:30:19.107Z,63.66
2022-08-18T02:31:24.288Z,63.96
2022-08-18T02:32:26.796Z,63.28
2022-08-18T02:33:31.197Z,62.28
2022-08-18T02:34:33.515Z,61.35
2022-08-18T02:35:37.101Z,60.53
2022-08-18T02:36:39.592Z,59.80
2022-08-18T02:37:47.801Z,59.14
2022-08-18T02:38:54.767Z,58.27
2022-08-18T02:40:01.593Z,58.46
2022-08-18T02:41:06.967Z,59.16
2022-08-18T02:42:09.270Z,60.11
2022-08-18T02:43:11.004Z,61.03
2022-08-18T02:44:12.719Z,61.85
2022-08-18T02:45:14.906Z,62.65
2022-08-18T02:46:16.654Z,63.69
2022-08-18T02:47:22.335Z,63.80
2022-08-18T02:48:36.009Z,62.98
2022-08-18T02:49:37.864Z,61.82
2022-08-18T02:50:48.834Z,60.94
2022-08-18T02:51:52.848Z,60.04
2022-08-18T02:52:54.846Z,59.36
2022-08-18T02:53:59.312Z,58.41
2022-08-18T02:55:02.917Z,58.15
2022-08-18T02:56:39.954Z,58.69
2022-08-18T02:57:48.899Z,60.05
2022-08-18T02:58:59.547Z,60.96
2022-08-18T03:00:01.252Z,61.83
2022-08-18T03:01:03.066Z,62.54
2022-08-18T03:02:07.465Z,63.53
2022-08-18T03:03:09.252Z,63.75
2022-08-18T03:04:14.370Z,63.11
2022-08-18T03:05:17.128Z,62.15
2022-08-18T03:06:21.167Z,61.27
2022-08-18T03:07:22.880Z,60.46
2022-08-18T03:08:24.648Z,59.78
2022-08-18T03:09:27.264Z,59.01
2022-08-18T03:10:33.200Z,58.24
2022-08-18T03:11:37.349Z,58.48
2022-08-18T03:12:39.108Z,59.25
2022-08-18T03:13:40.846Z,60.16
2022-08-18T03:14:43.599Z,61.08
2022-08-18T03:15:45.328Z,61.99
2022-08-18T03:16:53.578Z,62.98
2022-08-18T03:17:56.361Z,64.06
2022-08-18T03:18:59.244Z,63.88
2022-08-18T03:20:01.059Z,63.11
2022-08-18T03:21:07.717Z,62.20
2022-08-18T03:22:27.801Z,61.33
2022-08-18T03:23:31.416Z,60.40
2022-08-18T03:24:33.306Z,59.86
2022-08-18T03:25:35.071Z,59.32
2022-08-18T03:26:42.766Z,58.48
2022-08-18T03:27:44.485Z,58.32
2022-08-18T03:28:49.790Z,58.94
2022-08-18T03:29:51.762Z,59.89
2022-08-18T03:30:53.406Z,60.81
2022-08-18T03:31:55.443Z,61.67
2022-08-18T03:32:57.858Z,62.54
2022-08-18T03:34:01.575Z,63.67
2022-08-18T03:35:04.260Z,64.07
2022-08-18T03:36:12.196Z,63.48
2022-08-18T03:37:16.032Z,62.48
2022-08-18T03:38:17.801Z,61.55
2022-08-18T03:39:22.963Z,60.76
2022-08-18T03:40:24.733Z,60.03
2022-08-18T03:41:43.954Z,59.35
2022-08-18T03:42:50.776Z,58.23
2022-08-18T03:43:53.169Z,58.33
2022-08-18T03:44:54.908Z,59.04
2022-08-18T03:46:01.513Z,59.93
2022-08-18T03:47:04.063Z,60.89
2022-08-18T03:48:05.861Z,61.74
2022-08-18T03:49:08.039Z,62.56
2022-08-18T03:50:09.921Z,63.62
2022-08-18T03:51:17.760Z,63.83
2022-08-18T03:52:19.964Z,63.16
2022-08-18T03:53:21.788Z,62.20
2022-08-18T03:54:23.517Z,61.26
2022-08-18T03:55:29.221Z,60.48
2022-08-18T03:56:36.328Z,59.73
2022-08-18T03:57:38.907Z,58.88
2022-08-18T03:58:41.246Z,58.20
2022-08-18T03:59:43.547Z,58.44
2022-08-18T04:00:45.196Z,59.18
2022-08-18T04:01:49.304Z,60.10
2022-08-18T04:02:51.726Z,61.08
2022-08-18T04:04:01.661Z,61.95
2022-08-18T04:05:05.435Z,63.03
2022-08-18T04:06:12.099Z,63.97
2022-08-18T04:07:17.353Z,63.76
2022-08-18T04:08:19.156Z,62.91
2022-08-18T04:09:24.738Z,62.01
2022-08-18T04:10:26.681Z,61.14
2022-08-18T04:11:28.656Z,60.46
2022-08-18T04:12:38.578Z,59.87
2022-08-18T04:13:41.464Z,59.42
2022-08-18T04:14:47.739Z,58.72
2022-08-18T04:15:49.557Z,58.63
2022-08-18T04:16:52.333Z,59.25
2022-08-18T04:18:03.285Z,60.13
2022-08-18T04:19:06.628Z,61.19
2022-08-18T04:20:08.911Z,62.11
2022-08-18T04:21:13.721Z,63.18
2022-08-18T04:22:17.134Z,64.18
2022-08-18T04:23:19.534Z,63.99
2022-08-18T04:24:21.372Z,63.25
2022-08-18T04:25:23.123Z,62.40
2022-08-18T04:26:24.879Z,61.58
2022-08-18T04:27:28.889Z,60.91
2022-08-18T04:28:31.439Z,60.33
2022-08-18T04:29:33.199Z,59.83
2022-08-18T04:30:36.133Z,59.34
2022-08-18T04:31:38.090Z,58.58
2022-08-18T04:32:39.919Z,58.48
2022-08-18T04:33:42.317Z,59.08
2022-08-18T04:34:44.474Z,60.00
2022-08-18T04:35:46.996Z,60.97
2022-08-18T04:36:51.381Z,61.88
2022-08-18T04:37:53.188Z,62.85
2022-08-18T04:38:56.617Z,63.93
2022-08-18T04:39:59.815Z,63.95
2022-08-18T04:41:01.682Z,63.23
2022-08-18T04:42:04.972Z,62.29
2022-08-18T04:43:06.986Z,61.39
2022-08-18T04:44:10.668Z,60.66
2022-08-18T04:45:13.213Z,59.95
2022-08-18T04:46:14.967Z,59.36
2022-08-18T04:47:16.842Z,58.51
2022-08-18T04:48:18.656Z,58.40
2022-08-18T04:49:26.088Z,59.01
2022-08-18T04:50:28.087Z,60.02
2022-08-18T04:52:36.669Z,61.03
2022-08-18T04:53:12.333Z,62.12
2022-08-18T04:54:14.028Z,63.45
2022-08-18T04:55:15.789Z,64.02
2022-08-18T04:56:27.660Z,63.51
2022-08-18T04:57:33.097Z,62.49
2022-08-18T04:58:36.402Z,61.55
2022-08-18T04:59:40.288Z,60.75
2022-08-18T05:00:44.147Z,60.13
2022-08-18T05:01:47.921Z,59.59
2022-08-18T05:02:49.926Z,58.86
2022-08-18T05:03:53.900Z,58.31
2022-08-18T05:04:55.640Z,58.64
2022-08-18T05:05:59.846Z,59.43
2022-08-18T05:07:01.607Z,60.36
2022-08-18T05:08:03.673Z,61.24
2022-08-18T05:09:08.937Z,62.06
2022-08-18T05:10:12.495Z,63.08
2022-08-18T05:11:15.526Z,64.01
2022-08-18T05:12:17.658Z,63.79
2022-08-18T05:13:22.101Z,62.98
2022-08-18T05:14:24.775Z,62.00
2022-08-18T05:15:26.497Z,61.06
2022-08-18T05:16:32.792Z,60.31
2022-08-18T05:17:39.559Z,59.54
2022-08-18T05:18:42.760Z,58.74
2022-08-18T05:19:45.800Z,58.34
2022-08-18T05:20:49.565Z,58.74
2022-08-18T05:21:53.451Z,59.53
2022-08-18T05:23:01.558Z,60.60
2022-08-18T05:24:05.669Z,61.42
2022-08-18T05:25:12.317Z,62.26
2022-08-18T05:26:15.651Z,63.35
2022-08-18T05:27:17.336Z,64.03
2022-08-18T05:28:19.452Z,63.68
2022-08-18T05:29:21.962Z,62.86
2022-08-18T05:30:25.609Z,61.92
2022-08-18T05:31:29.086Z,61.08
2022-08-18T05:32:48.176Z,60.35
2022-08-18T05:33:53.108Z,59.40
2022-08-18T05:34:54.937Z,58.48
2022-08-18T05:36:03.856Z,58.28
2022-08-18T05:37:21.143Z,58.85
2022-08-18T05:38:42.527Z,59.92
2022-08-18T05:40:08.903Z,61.07
2022-08-18T05:41:26.187Z,62.15
2022-08-18T05:42:35.337Z,63.30
2022-08-18T05:43:41.627Z,63.99
2022-08-18T05:44:55.956Z,63.37
2022-08-18T05:46:02.615Z,62.44
2022-08-18T05:47:32.224Z,61.48
2022-08-18T05:48:39.767Z,60.29
2022-08-18T05:49:49.125Z,59.34
2022-08-18T05:50:51.291Z,58.19
2022-08-18T05:52:13.970Z,57.90
2022-08-18T05:53:40.983Z,58.59
2022-08-18T05:55:11.086Z,59.71
2022-08-18T05:56:32.451Z,60.85
2022-08-18T05:57:47.187Z,61.65
2022-08-18T05:58:55.780Z,62.23
2022-08-18T05:59:58.838Z,63.14
2022-08-18T06:01:22.910Z,63.82
2022-08-18T06:02:39.465Z,62.94
2022-08-18T06:03:52.811Z,61.63
2022-08-18T06:05:05.939Z,60.39
2022-08-18T06:06:14.229Z,59.10
2022-08-18T06:07:25.949Z,57.93
2022-08-18T06:08:44.879Z,57.88
2022-08-18T06:09:54.954Z,58.57
2022-08-18T06:10:56.928Z,59.60
2022-08-18T06:12:20.865Z,60.44
2022-08-18T06:13:22.893Z,61.27
2022-08-18T06:14:25.310Z,61.90
2022-08-18T06:15:54.604Z,62.41
2022-08-18T06:17:13.251Z,63.29
2022-08-18T06:18:30.049Z,62.93
2022-08-18T06:19:43.897Z,61.71
2022-08-18T06:21:12.915Z,60.69
2022-08-18T06:22:36.261Z,59.45
2022-08-18T06:24:12.428Z,57.62
2022-08-18T06:25:34.690Z,57.78
2022-08-18T06:27:00.378Z,58.85
2022-08-18T06:28:14.151Z,60.02
2022-08-18T06:29:37.380Z,60.68
2022-08-18T06:30:41.683Z,61.35
2022-08-18T06:32:14.454Z,61.76
2022-08-18T06:34:00.697Z,62.64
2022-08-18T06:35:18.414Z,63.63
2022-08-18T06:36:45.354Z,62.86
2022-08-18T06:38:38.475Z,61.26
2022-08-18T06:39:50.565Z,59.39
2022-08-18T06:41:41.764Z,57.98
2022-08-18T06:42:36.575Z,57.62
2022-08-18T06:44:03.246Z,58.22
2022-08-18T06:45:14.095Z,59.26
2022-08-18T06:46:23.985Z,60.12
2022-08-18T06:47:44.619Z,60.93
2022-08-18T06:48:55.138Z,61.92
2022-08-18T06:50:15.380Z,62.49
2022-08-18T06:51:21.750Z,63.25
2022-08-18T06:52:34.308Z,63.00
2022-08-18T06:54:00.247Z,61.80
2022-08-18T06:55:11.553Z,60.47
2022-08-18T06:56:25.798Z,58.92
2022-08-18T06:57:33.527Z,57.46
2022-08-18T06:58:35.569Z,57.46
2022-08-18T06:59:38.468Z,57.82
2022-08-18T07:01:07.913Z,58.10
2022-08-18T07:02:27.664Z,58.90
2022-08-18T07:03:35.400Z,59.91
2022-08-18T07:04:40.173Z,60.13
2022-08-18T07:06:02.763Z,60.61
2022-08-18T07:07:15.627Z,61.53
2022-08-18T07:08:35.641Z,61.88
2022-08-18T07:09:40.557Z,62.22
2022-08-18T07:10:51.440Z,62.27
2022-08-18T07:12:08.795Z,62.44
2022-08-18T07:13:13.070Z,63.23
2022-08-18T07:14:24.426Z,62.82
2022-08-18T07:15:26.185Z,61.42
2022-08-18T07:16:54.445Z,60.37
2022-08-18T07:17:49.487Z,58.53
2022-08-18T07:18:52.584Z,56.99
2022-08-18T07:20:01.465Z,56.53
2022-08-18T07:21:03.197Z,56.68
2022-08-18T07:22:14.517Z,57.42
2022-08-18T07:23:39.180Z,57.98
2022-08-18T07:24:45.251Z,58.27
2022-08-18T07:25:58.401Z,58.41
2022-08-18T07:27:17.579Z,59.09
2022-08-18T07:28:47.644Z,60.34
2022-08-18T07:30:30.037Z,61.21
2022-08-18T07:31:46.516Z,61.61
2022-08-18T07:33:12.592Z,61.43
2022-08-18T07:34:27.466Z,60.95
2022-08-18T07:35:45.791Z,61.14
2022-08-18T07:37:09.512Z,61.52
2022-08-18T07:38:45.605Z,62.16
2022-08-18T07:40:18.118Z,62.58
2022-08-18T07:41:31.877Z,63.61
2022-08-18T07:43:00.708Z,62.77
2022-08-18T07:44:45.454Z,60.43
2022-08-18T07:45:48.020Z,57.34
2022-08-18T07:47:18.207Z,56.47
2022-08-18T07:48:38.234Z,56.69
2022-08-18T07:50:13.626Z,57.02
2022-08-18T07:51:13.724Z,57.44
2022-08-18T07:52:36.648Z,58.11
2022-08-18T07:54:44.941Z,58.86
2022-08-18T07:55:37.133Z,59.42
2022-08-18T07:56:57.515Z,59.44
2022-08-18T07:58:25.062Z,59.78
2022-08-18T07:59:39.689Z,60.06
2022-08-18T08:00:58.611Z,60.13
2022-08-18T08:02:28.596Z,60.49
2022-08-18T08:03:51.884Z,60.09
2022-08-18T08:05:30.975Z,60.33
2022-08-18T08:06:41.346Z,60.30
2022-08-18T08:08:10.265Z,60.65
2022-08-18T08:09:24.434Z,60.47
2022-08-18T08:10:55.037Z,60.38
2022-08-18T08:12:14.453Z,60.29
2022-08-18T08:13:54.693Z,60.04
2022-08-18T08:15:17.678Z,59.37
2022-08-18T08:16:47.314Z,58.92
2022-08-18T08:18:25.395Z,59.57
2022-08-18T08:19:59.473Z,59.73
2022-08-18T08:21:20.092Z,59.63
2022-08-18T08:22:36.276Z,59.92
2022-08-18T08:23:54.500Z,60.13
2022-08-18T08:25:45.296Z,60.51
2022-08-18T08:27:18.356Z,60.52
2022-08-18T08:28:41.638Z,60.58
2022-08-18T08:30:08.940Z,60.17
2022-08-18T08:31:43.252Z,59.22
2022-08-18T08:33:06.562Z,59.38
2022-08-18T08:34:41.647Z,59.55
2022-08-18T08:35:58.921Z,59.81
2022-08-18T08:37:04.491Z,60.17
2022-08-18T08:38:39.293Z,60.00
2022-08-18T08:39:58.010Z,60.06
2022-08-18T08:41:07.285Z,60.33
2022-08-18T08:42:37.450Z,60.75
2022-08-18T08:43:53.689Z,60.97
2022-08-18T08:45:01.258Z,61.14
2022-08-18T08:46:11.333Z,60.38
2022-08-18T08:47:24.551Z,59.82
2022-08-18T08:48:35.652Z,59.98
2022-08-18T08:49:46.095Z,60.24
2022-08-18T08:51:04.077Z,60.38
2022-08-18T08:52:23.201Z,60.55
2022-08-18T08:53:36.438Z,60.28
2022-08-18T08:54:50.222Z,60.24
2022-08-18T08:56:02.737Z,60.41
2022-08-18T08:57:07.144Z,60.24
2022-08-18T08:58:33.772Z,59.96
2022-08-18T08:59:39.539Z,60.76
2022-08-18T09:00:43.587Z,60.38
2022-08-18T09:02:08.014Z,60.02
2022-08-18T09:03:42.735Z,60.35
2022-08-18T09:04:54.718Z,59.84
2022-08-18T09:06:32.030Z,58.98
2022-08-18T09:07:51.670Z,58.70
2022-08-18T09:09:05.194Z,58.67
2022-08-18T09:10:28.441Z,58.59
2022-08-18T09:11:45.526Z,57.81
2022-08-18T09:13:05.411Z,57.61
2022-08-18T09:14:39.112Z,57.40
2022-08-18T09:16:18.513Z,56.83
2022-08-18T09:17:50.838Z,57.53
2022-08-18T09:19:12.883Z,58.44
2022-08-18T09:20:33.076Z,58.35
2022-08-18T09:21:46.815Z,58.40
2022-08-18T09:22:56.289Z,58.21
2022-08-18T09:24:20.918Z,57.54
2022-08-18T09:25:43.849Z,57.32
2022-08-18T09:27:14.221Z,56.60
2022-08-18T09:28:25.991Z,57.04
2022-08-18T09:30:01.970Z,56.55
2022-08-18T09:31:08.561Z,57.09
2022-08-18T09:32:20.016Z,56.60
2022-08-18T09:33:44.434Z,56.02
2022-08-18T09:35:17.160Z,55.80
2022-08-18T09:36:31.120Z,55.09
2022-08-18T09:39:56.532Z,54.69
2022-08-18T09:41:27.244Z,55.24
2022-08-18T09:44:21.587Z,55.09
2022-08-18T09:45:34.451Z,55.14
2022-08-18T09:46:47.947Z,54.57
2022-08-18T09:47:52.878Z,53.97
2022-08-18T09:49:26.769Z,53.48
2022-08-18T09:50:28.478Z,52.79
2022-08-18T09:51:39.928Z,53.14
2022-08-18T09:52:42.672Z,53.19
2022-08-18T09:53:46.066Z,52.52
2022-08-18T09:54:59.544Z,52.56
2022-08-18T09:56:05.177Z,53.22
2022-08-18T09:57:19.661Z,53.25
2022-08-18T09:58:26.190Z,52.48
2022-08-18T09:59:34.283Z,52.52
2022-08-18T10:00:36.465Z,52.77
2022-08-18T10:01:41.939Z,52.76
2022-08-18T10:02:47.617Z,53.10
2022-08-18T10:04:15.091Z,53.79
2022-08-18T10:05:22.570Z,54.05
2022-08-18T10:06:28.020Z,54.09
2022-08-18T10:07:41.883Z,52.82
2022-08-18T10:09:02.678Z,52.78
2022-08-18T10:11:00.897Z,53.47
2022-08-18T10:11:59.868Z,53.38
2022-08-18T10:13:24.743Z,53.20
2022-08-18T10:14:55.641Z,52.17
2022-08-18T10:16:21.372Z,51.58
2022-08-18T10:17:51.076Z,51.46
2022-08-18T10:19:33.949Z,51.19
2022-08-18T10:20:56.452Z,50.63
2022-08-18T10:22:01.458Z,51.48
2022-08-18T10:23:04.644Z,51.47
2022-08-18T10:25:46.475Z,50.69
2022-08-18T10:26:54.030Z,51.78
2022-08-18T10:27:57.738Z,51.29
2022-08-18T10:29:07.930Z,50.77
2022-08-18T10:30:31.056Z,50.09
2022-08-18T10:31:57.856Z,49.39
2022-08-18T10:33:18.025Z,49.10
2022-08-18T10:34:52.392Z,49.40
2022-08-18T10:35:59.638Z,50.82
2022-08-18T10:37:06.315Z,50.64
2022-08-18T10:38:22.855Z,51.11
2022-08-18T10:39:46.535Z,50.55
2022-08-18T10:41:09.415Z,50.01
2022-08-18T10:42:35.986Z,50.09
2022-08-18T10:43:57.645Z,51.25
2022-08-18T10:45:10.498Z,50.77
2022-08-18T10:46:25.005Z,50.39
2022-08-18T10:47:33.486Z,50.73
2022-08-18T10:48:35.747Z,50.72
2022-08-18T10:49:49.289Z,51.17
2022-08-18T10:51:59.537Z,51.39
2022-08-18T10:55:16.638Z,49.72
2022-08-18T10:56:49.942Z,48.85
2022-08-18T10:58:09.609Z,49.14
2022-08-18T10:59:47.677Z,49.45
2022-08-18T11:01:20.551Z,49.49
2022-08-18T11:02:48.967Z,49.76
2022-08-18T11:04:14.098Z,49.18
2022-08-18T11:05:24.710Z,49.70
2022-08-18T11:06:27.821Z,49.79
2022-08-18T11:07:34.412Z,49.74
2022-08-18T11:08:45.075Z,49.50
2022-08-18T11:10:04.458Z,49.39
2022-08-18T11:11:37.189Z,50.33
2022-08-18T11:12:52.904Z,49.25
2022-08-18T11:14:08.661Z,48.90
2022-08-18T11:15:23.615Z,48.88
2022-08-18T11:16:43.886Z,49.29
2022-08-18T11:18:14.774Z,49.81
2022-08-18T11:19:20.283Z,50.95
2022-08-18T11:20:31.479Z,51.55
2022-08-18T11:21:43.404Z,51.40
2022-08-18T11:22:56.372Z,50.63
2022-08-18T11:24:07.702Z,49.98
2022-08-18T11:25:29.881Z,49.17
2022-08-18T11:26:35.511Z,49.44
2022-08-18T11:27:47.403Z,49.58
2022-08-18T11:28:50.126Z,49.43
2022-08-18T11:29:58.828Z,49.47
2022-08-18T11:31:01.067Z,49.35
2022-08-18T11:33:31.150Z,49.66
2022-08-18T11:36:08.461Z,49.00
2022-08-18T11:37:27.776Z,48.16
2022-08-18T11:38:31.612Z,48.25
2022-08-18T11:39:49.233Z,48.81
2022-08-18T11:41:13.571Z,49.19
2022-08-18T11:42:24.960Z,49.49
2022-08-18T11:43:41.513Z,50.06
2022-08-18T11:44:45.824Z,49.52
2022-08-18T11:46:16.431Z,48.64
2022-08-18T11:48:52.714Z,48.28
2022-08-18T11:50:12.504Z,48.45
2022-08-18T11:51:27.197Z,48.11
2022-08-18T11:53:58.921Z,48.33
2022-08-18T11:56:38.215Z,48.84
2022-08-18T11:57:54.496Z,48.64
2022-08-18T11:59:09.480Z,47.08
2022-08-18T12:00:42.831Z,46.05
2022-08-18T12:01:52.004Z,46.32
2022-08-18T12:03:08.695Z,45.82
2022-08-18T12:04:13.449Z,45.57
2022-08-18T12:05:15.234Z,45.84
2022-08-18T12:06:32.148Z,46.23
2022-08-18T12:07:35.887Z,45.65
2022-08-18T12:08:57.036Z,45.73
2022-08-18T12:10:26.296Z,45.94
2022-08-18T12:11:48.738Z,46.03
2022-08-18T12:12:54.051Z,44.45
2022-08-18T12:14:31.865Z,43.38
2022-08-18T12:15:43.472Z,44.18
2022-08-18T12:16:50.210Z,43.50
2022-08-18T12:17:53.795Z,43.47
2022-08-18T12:18:55.739Z,43.84
2022-08-18T12:19:59.741Z,44.08
2022-08-18T12:21:02.823Z,43.46
2022-08-18T12:22:17.620Z,43.47
2022-08-18T12:23:19.391Z,43.17
2022-08-18T12:24:36.760Z,42.98
2022-08-18T12:25:51.808Z,42.23
2022-08-18T12:26:54.478Z,42.55
2022-08-18T12:27:57.695Z,42.13
2022-08-18T12:30:21.297Z,42.35
2022-08-18T12:31:22.946Z,42.15
2022-08-18T12:32:49.491Z,41.36
2022-08-18T12:34:00.708Z,41.33
2022-08-18T12:35:09.317Z,41.65
2022-08-18T12:36:12.188Z,41.80
2022-08-18T12:37:58.377Z,41.26
2022-08-18T12:38:52.197Z,40.56
2022-08-18T12:39:59.640Z,40.82
2022-08-18T12:41:01.665Z,40.32
2022-08-18T12:42:04.983Z,40.62
2022-08-18T12:43:08.073Z,40.35
2022-08-18T12:44:13.177Z,40.41
2022-08-18T12:45:15.652Z,40.47
2022-08-18T12:46:18.256Z,40.49
2022-08-18T12:47:25.682Z,40.24
2022-08-18T12:48:32.846Z,40.10
2022-08-18T12:49:36.147Z,40.02
2022-08-18T12:50:54.523Z,40.76
2022-08-18T12:52:00.402Z,40.97
2022-08-18T12:53:05.805Z,41.35
2022-08-18T12:54:10.554Z,42.48
2022-08-18T12:56:36.422Z,43.13
2022-08-18T12:57:53.391Z,43.00
2022-08-18T12:58:56.954Z,43.14
2022-08-18T12:59:59.334Z,43.10
2022-08-18T13:01:01.469Z,42.73
2022-08-18T13:02:05.928Z,41.36
2022-08-18T13:03:08.588Z,40.47
2022-08-18T13:04:12.876Z,39.97
2022-08-18T13:05:15.459Z,39.88
2022-08-18T13:06:17.654Z,39.50
2022-08-18T13:07:20.560Z,39.27
2022-08-18T13:08:30.731Z,39.67
2022-08-18T13:09:52.770Z,39.79
2022-08-18T13:10:58.227Z,39.95
2022-08-18T13:12:00.367Z,40.57
2022-08-18T13:13:02.140Z,40.97
2022-08-18T13:14:08.984Z,41.38
2022-08-18T13:15:11.343Z,40.29
2022-08-18T13:16:16.502Z,39.70
2022-08-18T13:17:34.322Z,39.71
2022-08-18T13:18:37.621Z,39.78
2022-08-18T13:19:39.433Z,39.74
2022-08-18T13:20:45.225Z,39.52
2022-08-18T13:21:47.750Z,39.76
2022-08-18T13:22:51.528Z,39.74
2022-08-18T13:23:55.108Z,39.31
2022-08-18T13:24:56.814Z,38.48
2022-08-18T13:26:03.225Z,38.94
2022-08-18T13:27:18.467Z,38.76
2022-08-18T13:28:24.628Z,38.64
2022-08-18T13:29:32.183Z,38.56
2022-08-18T13:30:35.581Z,38.17
2022-08-18T13:31:38.638Z,38.41
2022-08-18T13:32:43.783Z,38.84
2022-08-18T13:34:00.667Z,37.34
2022-08-18T13:35:08.971Z,37.10
2022-08-18T13:36:15.091Z,37.68
2022-08-18T13:37:16.750Z,37.43
2022-08-18T13:38:27.221Z,37.29
2022-08-18T13:39:31.364Z,37.53
2022-08-18T13:40:38.048Z,37.44
2022-08-18T13:41:52.092Z,37.76
2022-08-18T13:42:54.418Z,37.75
2022-08-18T13:43:58.816Z,37.27
2022-08-18T13:45:25.367Z,36.73
2022-08-18T13:46:30.930Z,36.65
2022-08-18T13:47:38.073Z,37.50
2022-08-18T13:48:41.675Z,38.40
2022-08-18T13:49:43.547Z,38.30
2022-08-18T13:51:02.010Z,37.63
2022-08-18T13:52:12.224Z,36.73
2022-08-18T13:53:29.883Z,37.31
2022-08-18T13:54:35.271Z,37.49
2022-08-18T13:55:37.057Z,36.73
2022-08-18T13:56:39.794Z,36.81
2022-08-18T13:57:50.290Z,36.73
2022-08-18T13:58:55.352Z,36.82
2022-08-18T13:59:57.532Z,36.86
2022-08-18T14:01:39.777Z,36.71
2022-08-18T14:02:26.813Z,36.18
2022-08-18T14:03:42.321Z,35.93
2022-08-18T14:04:49.325Z,35.99
2022-08-18T14:06:01.059Z,35.74
2022-08-18T14:07:09.613Z,35.74
2022-08-18T14:08:19.235Z,34.55
2022-08-18T14:09:27.756Z,34.60
2022-08-18T14:10:38.467Z,34.62
2022-08-18T14:11:41.831Z,34.84
2022-08-18T14:12:45.800Z,34.11
2022-08-18T14:13:48.864Z,33.75
2022-08-18T14:14:55.577Z,33.79
2022-08-18T14:15:59.423Z,33.65
2022-08-18T14:17:01.415Z,33.61
2022-08-18T14:18:05.986Z,33.37
2022-08-18T14:19:26.217Z,33.70
2022-08-18T14:20:49.188Z,33.39
2022-08-18T14:22:13.508Z,34.38
2022-08-18T14:23:34.893Z,33.62
2022-08-18T14:25:00.533Z,32.95
2022-08-18T14:26:20.699Z,32.45
2022-08-18T14:27:35.058Z,32.62
2022-08-18T14:28:38.418Z,32.66
2022-08-18T14:29:46.770Z,32.94
2022-08-18T14:30:54.196Z,33.06
2022-08-18T14:31:57.265Z,33.32
2022-08-18T14:32:59.421Z,33.23
2022-08-18T14:34:04.147Z,33.12
2022-08-18T14:35:32.014Z,32.51
2022-08-18T14:36:31.421Z,32.47
2022-08-18T14:37:33.795Z,32.39
2022-08-18T14:38:36.573Z,31.94
2022-08-18T14:39:40.271Z,31.88
2022-08-18T14:40:45.077Z,32.25
2022-08-18T14:41:49.541Z,32.35
2022-08-18T14:42:57.922Z,32.31
2022-08-18T14:44:12.187Z,32.23
2022-08-18T14:45:26.407Z,31.87
2022-08-18T14:46:35.861Z,31.93
2022-08-18T14:47:37.548Z,31.82
2022-08-18T14:48:42.547Z,31.90
2022-08-18T14:49:49.606Z,31.56
2022-08-18T14:50:55.452Z,31.55
2022-08-18T14:51:59.015Z,31.67
2022-08-18T14:53:00.711Z,31.90
2022-08-18T14:54:03.013Z,32.36
2022-08-18T14:55:05.199Z,32.60
2022-08-18T14:56:09.255Z,32.52
2022-08-18T14:57:12.082Z,32.23
2022-08-18T14:58:14.402Z,32.45
2022-08-18T14:59:20.467Z,32.59
2022-08-18T15:00:22.853Z,32.82
2022-08-18T15:01:26.721Z,32.88
2022-08-18T15:02:28.728Z,32.79
2022-08-18T15:03:31.867Z,32.39
2022-08-18T15:04:33.867Z,32.63
2022-08-18T15:05:40.329Z,32.85
2022-08-18T15:06:44.091Z,32.36
2022-08-18T15:07:58.881Z,31.88
2022-08-18T15:09:00.544Z,31.89
2022-08-18T15:10:14.952Z,32.40
2022-08-18T15:11:19.357Z,32.40
2022-08-18T15:12:26.646Z,32.21
2022-08-18T15:13:28.633Z,31.78
2022-08-18T15:14:32.961Z,31.68
2022-08-18T15:15:50.615Z,31.40
2022-08-18T15:16:52.943Z,31.36
2022-08-18T15:17:54.617Z,31.19
2022-08-18T15:18:58.483Z,30.78
2022-08-18T15:20:01.219Z,30.70
2022-08-18T15:21:35.567Z,30.48
2022-08-18T15:23:01.974Z,31.05
2022-08-18T15:24:25.813Z,31.38
2022-08-18T15:26:02.434Z,30.93
2022-08-18T15:27:10.413Z,30.65
2022-08-18T15:28:23.765Z,30.80